Météo des aéroports (METAR) proches de Ticheville

 

LFRG - St Gatien, France
Distance from station: N 52km
Mise à jour: 22/10/2018 20:00
couvert
couvert
 Wind from NNE
Vent: NNE 15 km/h
Température: 11°C
Point de rosée: 7°C
Humidité: 77%
Baromètre: 1036 hPa
Clouds: couvert
Visibility: 10 km
Cloud details: couvert 853 m
2018/10/22 18:00 LFRG 221800Z AUTO 02008KT 360V060 9999 OVC028 11/07 Q1036 NOSIG
LFRK - Caen/Carpiquet(A, France
Distance from station: ONO 60km
Mise à jour: 22/10/2018 20:00
couvert
couvert
 Wind from NNE
Vent: NNE 13 km/h
Température: 12°C
Point de rosée: 7°C
Humidité: 72%
Baromètre: 1036 hPa
Clouds: couvert
Visibility: 10 km
Cloud details: couvert 884 m
2018/10/22 18:00 LFRK 221800Z AUTO 02007KT 9999 OVC029 12/07 Q1036 NOSIG
 
LFOH - Le Havre/Octevil, France
Distance from station: NNO 69km
Mise à jour: 22/10/2018 20:00
Few Clouds
Few Clouds
 Wind from NNE
Vent: NNE 13 km/h
Température: 9°C
Wind Chill: 7°C
Point de rosée: 6°C
Humidité: 82%
Baromètre: 1036 hPa
Clouds: Few Clouds
Visibility: 10 km
Cloud details: Few Clouds 853 m
2018/10/22 18:00 LFOH 221800Z AUTO 03007KT 9999 FEW028 09/06 Q1036 NOSIG
LFOE - Evreux/Fauville, France
Distance from station: E 70km
Mise à jour: 22/10/2018 20:00
clair
clair
 Wind from N
Vent: N 13 km/h
Température: 10°C
Wind Chill: 8°C
Point de rosée: 6°C
Humidité: 76%
Baromètre: 1035 hPa
Résumé: clair
Visibility: greater than 10 km
2018/10/22 18:00 LFOE 221800Z AUTO 36007KT CAVOK 10/06 Q1035 NOSIG
 
LFOP - Rouen/Boos (aut), France
Distance from station: NE 83km
Mise à jour: 22/10/2018 20:00
clair
clair
 Wind from N
Vent: N 13 km/h
Température: 10°C
Wind Chill: 8°C
Point de rosée: 5°C
Humidité: 71%
Baromètre: 1035 hPa
Résumé: clair
Visibility: greater than 10 km
2018/10/22 18:00 LFOP 221800Z AUTO 01007KT CAVOK 10/05 Q1035 NOSIG
LFRM - Le Mans/Arnage(A, France
Distance from station: S 107km
Mise à jour: 22/10/2018 20:00
nuageux
nuageux
 Wind from NNE
Vent: NNE 19 km/h
Température: 14°C
Point de rosée: 8°C
Humidité: 67%
Baromètre: 1034 hPa
Clouds: nuageux
Visibility: 10 km
Cloud details: nuageux 1006 m
2018/10/22 18:00 LFRM 221800Z AUTO 03010KT 360V060 9999 BKN033 14/08 Q1034 NOSIG